sensor_id;sensor_type;location;lat;lon;timestamp;temperature;humidity
39957;DHT22;48483;44.640;7.494;2023-06-22T00:02:17;24.70;99.90
39957;DHT22;48483;44.640;7.494;2023-06-22T00:04:44;24.70;99.90
39957;DHT22;48483;44.640;7.494;2023-06-22T00:07:11;24.70;99.90
39957;DHT22;48483;44.640;7.494;2023-06-22T00:09:37;24.70;99.90
39957;DHT22;48483;44.640;7.494;2023-06-22T00:12:05;24.70;99.90
39957;DHT22;48483;44.640;7.494;2023-06-22T00:14:32;24.70;99.90
39957;DHT22;48483;44.640;7.494;2023-06-22T00:16:59;24.70;99.90
39957;DHT22;48483;44.640;7.494;2023-06-22T00:19:26;24.60;99.90
39957;DHT22;48483;44.640;7.494;2023-06-22T00:21:53;24.60;99.90
39957;DHT22;48483;44.640;7.494;2023-06-22T00:24:19;24.60;99.90
39957;DHT22;48483;44.640;7.494;2023-06-22T00:26:47;24.50;99.90
39957;DHT22;48483;44.640;7.494;2023-06-22T00:29:14;24.50;99.90
39957;DHT22;48483;44.640;7.494;2023-06-22T00:31:40;24.40;99.90
39957;DHT22;48483;44.640;7.494;2023-06-22T00:34:09;24.40;99.90
39957;DHT22;48483;44.640;7.494;2023-06-22T00:36:36;24.40;99.90
39957;DHT22;48483;44.640;7.494;2023-06-22T00:39:03;24.40;99.90
39957;DHT22;48483;44.640;7.494;2023-06-22T00:41:30;24.40;99.90
39957;DHT22;48483;44.640;7.494;2023-06-22T00:43:57;24.40;99.90
39957;DHT22;48483;44.640;7.494;2023-06-22T00:46:24;24.50;99.90
39957;DHT22;48483;44.640;7.494;2023-06-22T00:48:52;24.50;99.90
39957;DHT22;48483;44.640;7.494;2023-06-22T00:51:20;24.50;99.90
39957;DHT22;48483;44.640;7.494;2023-06-22T00:53:51;24.50;99.90
39957;DHT22;48483;44.640;7.494;2023-06-22T00:56:18;24.50;99.90
39957;DHT22;48483;44.640;7.494;2023-06-22T00:58:46;24.50;99.90
39957;DHT22;48483;44.640;7.494;2023-06-22T01:01:13;24.50;99.90
39957;DHT22;48483;44.640;7.494;2023-06-22T01:03:40;24.50;99.90
39957;DHT22;48483;44.640;7.494;2023-06-22T01:06:09;24.50;99.90
39957;DHT22;48483;44.640;7.494;2023-06-22T01:08:44;24.40;99.90
39957;DHT22;48483;44.640;7.494;2023-06-22T01:11:18;24.50;99.90
39957;DHT22;48483;44.640;7.494;2023-06-22T01:13:50;24.50;99.90
39957;DHT22;48483;44.640;7.494;2023-06-22T01:16:24;24.40;99.90
39957;DHT22;48483;44.640;7.494;2023-06-22T01:18:55;24.50;99.90
39957;DHT22;48483;44.640;7.494;2023-06-22T01:21:25;24.40;99.90
39957;DHT22;48483;44.640;7.494;2023-06-22T01:24:06;24.40;99.90
39957;DHT22;48483;44.640;7.494;2023-06-22T01:26:39;24.40;99.90
39957;DHT22;48483;44.640;7.494;2023-06-22T01:29:11;24.30;99.90
39957;DHT22;48483;44.640;7.494;2023-06-22T01:31:40;24.30;99.90
39957;DHT22;48483;44.640;7.494;2023-06-22T01:34:09;24.20;99.90
39957;DHT22;48483;44.640;7.494;2023-06-22T01:36:37;24.20;99.90
39957;DHT22;48483;44.640;7.494;2023-06-22T01:39:05;24.10;99.90
39957;DHT22;48483;44.640;7.494;2023-06-22T01:41:35;24.10;99.90
39957;DHT22;48483;44.640;7.494;2023-06-22T01:44:03;24.20;99.90
39957;DHT22;48483;44.640;7.494;2023-06-22T01:46:32;24.20;99.90
39957;DHT22;48483;44.640;7.494;2023-06-22T01:49:00;24.30;99.90
39957;DHT22;48483;44.640;7.494;2023-06-22T01:51:27;24.30;99.90
39957;DHT22;48483;44.640;7.494;2023-06-22T01:53:54;24.30;99.90
39957;DHT22;48483;44.640;7.494;2023-06-22T01:56:20;24.30;99.90
39957;DHT22;48483;44.640;7.494;2023-06-22T01:58:50;24.30;99.90
39957;DHT22;48483;44.640;7.494;2023-06-22T02:01:23;24.30;99.90
39957;DHT22;48483;44.640;7.494;2023-06-22T02:04:03;24.20;99.90
39957;DHT22;48483;44.640;7.494;2023-06-22T02:06:35;24.20;99.90
39957;DHT22;48483;44.640;7.494;2023-06-22T02:09:07;24.10;99.90
39957;DHT22;48483;44.640;7.494;2023-06-22T02:11:36;24.20;99.90
39957;DHT22;48483;44.640;7.494;2023-06-22T02:14:05;24.20;99.90
39957;DHT22;48483;44.640;7.494;2023-06-22T02:16:33;24.10;99.90
39957;DHT22;48483;44.640;7.494;2023-06-22T02:19:02;24.10;99.90
39957;DHT22;48483;44.640;7.494;2023-06-22T02:21:30;24.10;99.90
39957;DHT22;48483;44.640;7.494;2023-06-22T02:23:57;24.10;99.90
39957;DHT22;48483;44.640;7.494;2023-06-22T02:26:25;24.10;99.90
39957;DHT22;48483;44.640;7.494;2023-06-22T02:28:51;24.10;99.90
39957;DHT22;48483;44.640;7.494;2023-06-22T02:31:18;24.10;99.90
39957;DHT22;48483;44.640;7.494;2023-06-22T02:33:46;24.00;99.90
39957;DHT22;48483;44.640;7.494;2023-06-22T02:36:14;24.00;99.90
39957;DHT22;48483;44.640;7.494;2023-06-22T02:38:41;24.00;99.90
39957;DHT22;48483;44.640;7.494;2023-06-22T02:41:14;24.00;99.90
39957;DHT22;48483;44.640;7.494;2023-06-22T02:43:44;23.90;99.90
39957;DHT22;48483;44.640;7.494;2023-06-22T02:46:12;23.80;99.90
39957;DHT22;48483;44.640;7.494;2023-06-22T02:48:40;23.80;99.90
39957;DHT22;48483;44.640;7.494;2023-06-22T02:51:08;23.80;99.90
39957;DHT22;48483;44.640;7.494;2023-06-22T02:53:38;23.70;99.90
39957;DHT22;48483;44.640;7.494;2023-06-22T02:56:05;23.70;99.90
39957;DHT22;48483;44.640;7.494;2023-06-22T02:58:33;23.80;99.90
39957;DHT22;48483;44.640;7.494;2023-06-22T03:01:07;23.70;99.90
39957;DHT22;48483;44.640;7.494;2023-06-22T03:03:35;23.50;99.90
39957;DHT22;48483;44.640;7.494;2023-06-22T03:06:02;23.20;99.90
39957;DHT22;48483;44.640;7.494;2023-06-22T03:08:29;23.30;99.90
39957;DHT22;48483;44.640;7.494;2023-06-22T03:10:57;23.50;99.90
39957;DHT22;48483;44.640;7.494;2023-06-22T03:13:24;23.50;99.90
39957;DHT22;48483;44.640;7.494;2023-06-22T03:15:51;23.40;99.90
39957;DHT22;48483;44.640;7.494;2023-06-22T03:18:19;23.40;99.90
39957;DHT22;48483;44.640;7.494;2023-06-22T03:20:45;23.60;99.90
39957;DHT22;48483;44.640;7.494;2023-06-22T03:23:12;23.50;99.90
39957;DHT22;48483;44.640;7.494;2023-06-22T03:25:38;23.40;99.90
39957;DHT22;48483;44.640;7.494;2023-06-22T03:28:07;23.50;99.90
39957;DHT22;48483;44.640;7.494;2023-06-22T03:30:33;23.30;99.90
39957;DHT22;48483;44.640;7.494;2023-06-22T03:33:01;23.40;99.90
39957;DHT22;48483;44.640;7.494;2023-06-22T03:35:27;23.40;99.90
39957;DHT22;48483;44.640;7.494;2023-06-22T03:37:54;23.30;99.90
39957;DHT22;48483;44.640;7.494;2023-06-22T03:40:21;23.40;99.90
39957;DHT22;48483;44.640;7.494;2023-06-22T03:42:48;23.40;99.90
39957;DHT22;48483;44.640;7.494;2023-06-22T03:45:16;23.40;99.90
39957;DHT22;48483;44.640;7.494;2023-06-22T03:47:42;23.20;99.90
39957;DHT22;48483;44.640;7.494;2023-06-22T03:50:09;23.10;99.90
39957;DHT22;48483;44.640;7.494;2023-06-22T03:52:36;23.20;99.90
39957;DHT22;48483;44.640;7.494;2023-06-22T03:55:03;23.20;99.90
39957;DHT22;48483;44.640;7.494;2023-06-22T03:57:32;23.40;99.90
39957;DHT22;48483;44.640;7.494;2023-06-22T03:59:59;23.40;99.90
39957;DHT22;48483;44.640;7.494;2023-06-22T04:02:27;23.40;99.90
39957;DHT22;48483;44.640;7.494;2023-06-22T04:04:53;23.50;99.90
39957;DHT22;48483;44.640;7.494;2023-06-22T04:07:20;23.50;99.90
39957;DHT22;48483;44.640;7.494;2023-06-22T04:09:47;23.50;99.90
39957;DHT22;48483;44.640;7.494;2023-06-22T04:12:13;23.50;99.90
39957;DHT22;48483;44.640;7.494;2023-06-22T04:14:40;23.60;99.90
39957;DHT22;48483;44.640;7.494;2023-06-22T04:17:06;23.60;99.90
39957;DHT22;48483;44.640;7.494;2023-06-22T04:19:34;23.60;99.90
39957;DHT22;48483;44.640;7.494;2023-06-22T04:22:01;23.60;99.90
39957;DHT22;48483;44.640;7.494;2023-06-22T04:24:28;23.70;99.90
39957;DHT22;48483;44.640;7.494;2023-06-22T04:26:54;23.60;99.90
39957;DHT22;48483;44.640;7.494;2023-06-22T04:29:21;23.70;99.90
39957;DHT22;48483;44.640;7.494;2023-06-22T04:31:55;23.60;99.90
39957;DHT22;48483;44.640;7.494;2023-06-22T04:34:24;23.60;99.90
39957;DHT22;48483;44.640;7.494;2023-06-22T04:36:54;23.60;99.90
39957;DHT22;48483;44.640;7.494;2023-06-22T04:39:21;23.60;99.90
39957;DHT22;48483;44.640;7.494;2023-06-22T04:41:47;23.60;99.90
39957;DHT22;48483;44.640;7.494;2023-06-22T04:44:15;23.60;99.90
39957;DHT22;48483;44.640;7.494;2023-06-22T04:46:50;23.60;99.90
39957;DHT22;48483;44.640;7.494;2023-06-22T04:49:20;23.60;99.90
39957;DHT22;48483;44.640;7.494;2023-06-22T04:51:48;23.60;99.90
39957;DHT22;48483;44.640;7.494;2023-06-22T04:54:19;23.60;99.90
39957;DHT22;48483;44.640;7.494;2023-06-22T04:56:46;23.60;99.90
39957;DHT22;48483;44.640;7.494;2023-06-22T04:59:13;23.50;99.90
39957;DHT22;48483;44.640;7.494;2023-06-22T05:01:41;23.50;99.90
39957;DHT22;48483;44.640;7.494;2023-06-22T05:04:08;23.60;99.90
39957;DHT22;48483;44.640;7.494;2023-06-22T05:06:35;23.60;99.90
39957;DHT22;48483;44.640;7.494;2023-06-22T05:09:01;23.70;99.90
39957;DHT22;48483;44.640;7.494;2023-06-22T05:11:30;23.70;99.90
39957;DHT22;48483;44.640;7.494;2023-06-22T05:13:57;23.80;99.90
39957;DHT22;48483;44.640;7.494;2023-06-22T05:16:24;23.80;99.90
39957;DHT22;48483;44.640;7.494;2023-06-22T05:18:52;23.90;99.90
39957;DHT22;48483;44.640;7.494;2023-06-22T05:21:22;23.90;99.90
39957;DHT22;48483;44.640;7.494;2023-06-22T05:23:49;23.90;99.90
39957;DHT22;48483;44.640;7.494;2023-06-22T05:26:16;24.00;99.90
39957;DHT22;48483;44.640;7.494;2023-06-22T05:28:44;24.00;99.90
39957;DHT22;48483;44.640;7.494;2023-06-22T05:31:12;24.00;99.90
39957;DHT22;48483;44.640;7.494;2023-06-22T05:33:40;24.00;99.90
39957;DHT22;48483;44.640;7.494;2023-06-22T05:36:06;24.10;99.90
39957;DHT22;48483;44.640;7.494;2023-06-22T05:38:33;24.20;99.90
39957;DHT22;48483;44.640;7.494;2023-06-22T05:41:00;24.20;99.90
39957;DHT22;48483;44.640;7.494;2023-06-22T05:43:26;24.30;99.90
39957;DHT22;48483;44.640;7.494;2023-06-22T05:45:54;24.30;99.90
39957;DHT22;48483;44.640;7.494;2023-06-22T05:48:21;24.30;99.90
39957;DHT22;48483;44.640;7.494;2023-06-22T05:50:48;24.30;99.90
39957;DHT22;48483;44.640;7.494;2023-06-22T05:53:14;24.30;99.90
39957;DHT22;48483;44.640;7.494;2023-06-22T05:55:41;24.50;99.90
39957;DHT22;48483;44.640;7.494;2023-06-22T05:58:09;24.80;99.90
39957;DHT22;48483;44.640;7.494;2023-06-22T06:00:36;24.70;99.90
39957;DHT22;48483;44.640;7.494;2023-06-22T06:03:04;24.90;99.90
39957;DHT22;48483;44.640;7.494;2023-06-22T06:05:30;24.70;99.90
39957;DHT22;48483;44.640;7.494;2023-06-22T06:07:58;24.60;99.90
39957;DHT22;48483;44.640;7.494;2023-06-22T06:10:24;24.50;99.90
39957;DHT22;48483;44.640;7.494;2023-06-22T06:12:52;24.50;99.90
39957;DHT22;48483;44.640;7.494;2023-06-22T06:15:18;24.60;99.90
39957;DHT22;48483;44.640;7.494;2023-06-22T06:17:46;24.70;99.90
39957;DHT22;48483;44.640;7.494;2023-06-22T06:20:14;24.90;99.90
39957;DHT22;48483;44.640;7.494;2023-06-22T06:22:41;25.00;99.90
39957;DHT22;48483;44.640;7.494;2023-06-22T06:25:09;25.10;99.90
39957;DHT22;48483;44.640;7.494;2023-06-22T06:27:36;25.10;99.90
39957;DHT22;48483;44.640;7.494;2023-06-22T06:30:03;25.10;99.90
39957;DHT22;48483;44.640;7.494;2023-06-22T06:32:30;25.20;99.90
39957;DHT22;48483;44.640;7.494;2023-06-22T06:34:57;25.40;99.90
39957;DHT22;48483;44.640;7.494;2023-06-22T06:37:25;25.50;99.90
39957;DHT22;48483;44.640;7.494;2023-06-22T06:39:51;25.60;99.90
39957;DHT22;48483;44.640;7.494;2023-06-22T06:42:18;25.50;99.90
39957;DHT22;48483;44.640;7.494;2023-06-22T06:44:45;25.60;99.90
39957;DHT22;48483;44.640;7.494;2023-06-22T06:47:12;25.60;99.90
39957;DHT22;48483;44.640;7.494;2023-06-22T06:49:39;25.80;99.90
39957;DHT22;48483;44.640;7.494;2023-06-22T06:52:06;25.90;99.90
39957;DHT22;48483;44.640;7.494;2023-06-22T06:54:34;26.00;99.90
39957;DHT22;48483;44.640;7.494;2023-06-22T06:57:01;26.00;99.90
39957;DHT22;48483;44.640;7.494;2023-06-22T06:59:29;26.10;99.90
39957;DHT22;48483;44.640;7.494;2023-06-22T07:01:56;26.20;99.90
39957;DHT22;48483;44.640;7.494;2023-06-22T07:04:23;26.30;99.90
39957;DHT22;48483;44.640;7.494;2023-06-22T07:06:49;26.30;99.90
39957;DHT22;48483;44.640;7.494;2023-06-22T07:09:16;26.30;99.90
39957;DHT22;48483;44.640;7.494;2023-06-22T07:11:46;26.40;99.90
39957;DHT22;48483;44.640;7.494;2023-06-22T07:14:13;26.50;99.90
39957;DHT22;48483;44.640;7.494;2023-06-22T07:16:39;26.60;99.90
39957;DHT22;48483;44.640;7.494;2023-06-22T07:19:07;26.60;99.90
39957;DHT22;48483;44.640;7.494;2023-06-22T07:21:33;26.70;99.90
39957;DHT22;48483;44.640;7.494;2023-06-22T07:24:00;26.80;99.90
39957;DHT22;48483;44.640;7.494;2023-06-22T07:26:27;26.80;99.90
39957;DHT22;48483;44.640;7.494;2023-06-22T07:28:54;26.80;99.90
39957;DHT22;48483;44.640;7.494;2023-06-22T07:31:21;26.90;99.90
39957;DHT22;48483;44.640;7.494;2023-06-22T07:33:48;26.90;99.90
39957;DHT22;48483;44.640;7.494;2023-06-22T07:36:14;27.00;99.90
39957;DHT22;48483;44.640;7.494;2023-06-22T07:38:41;27.10;99.90
39957;DHT22;48483;44.640;7.494;2023-06-22T07:41:07;27.20;99.90
39957;DHT22;48483;44.640;7.494;2023-06-22T07:43:34;27.30;99.90
39957;DHT22;48483;44.640;7.494;2023-06-22T07:46:04;27.50;99.90
39957;DHT22;48483;44.640;7.494;2023-06-22T07:48:31;27.60;99.90
39957;DHT22;48483;44.640;7.494;2023-06-22T07:50:58;27.70;99.90
39957;DHT22;48483;44.640;7.494;2023-06-22T07:53:24;27.70;99.90
39957;DHT22;48483;44.640;7.494;2023-06-22T07:55:51;27.80;99.90
39957;DHT22;48483;44.640;7.494;2023-06-22T07:58:17;27.90;99.90
39957;DHT22;48483;44.640;7.494;2023-06-22T08:00:45;28.00;99.90
39957;DHT22;48483;44.640;7.494;2023-06-22T08:03:13;27.90;99.90
39957;DHT22;48483;44.640;7.494;2023-06-22T08:05:39;28.00;99.90
39957;DHT22;48483;44.640;7.494;2023-06-22T08:08:06;28.20;99.90
39957;DHT22;48483;44.640;7.494;2023-06-22T08:10:33;28.20;99.90
39957;DHT22;48483;44.640;7.494;2023-06-22T08:13:00;28.20;99.90
39957;DHT22;48483;44.640;7.494;2023-06-22T08:15:27;28.20;99.90
39957;DHT22;48483;44.640;7.494;2023-06-22T08:17:54;28.20;99.90
39957;DHT22;48483;44.640;7.494;2023-06-22T08:20:22;28.30;99.90
39957;DHT22;48483;44.640;7.494;2023-06-22T08:22:49;28.30;99.90
39957;DHT22;48483;44.640;7.494;2023-06-22T08:25:15;28.20;99.90
39957;DHT22;48483;44.640;7.494;2023-06-22T08:27:45;28.20;99.50
39957;DHT22;48483;44.640;7.494;2023-06-22T08:30:13;28.20;99.90
39957;DHT22;48483;44.640;7.494;2023-06-22T08:32:40;28.30;99.90
39957;DHT22;48483;44.640;7.494;2023-06-22T08:35:07;28.50;99.70
39957;DHT22;48483;44.640;7.494;2023-06-22T08:37:37;28.60;98.30
39957;DHT22;48483;44.640;7.494;2023-06-22T08:40:08;28.60;98.00
39957;DHT22;48483;44.640;7.494;2023-06-22T08:42:36;28.50;98.70
39957;DHT22;48483;44.640;7.494;2023-06-22T08:45:03;28.60;97.70
39957;DHT22;48483;44.640;7.494;2023-06-22T08:47:31;28.80;98.00
39957;DHT22;48483;44.640;7.494;2023-06-22T08:49:58;28.90;97.90
39957;DHT22;48483;44.640;7.494;2023-06-22T08:52:26;29.00;98.20
39957;DHT22;48483;44.640;7.494;2023-06-22T08:54:54;28.90;99.10
39957;DHT22;48483;44.640;7.494;2023-06-22T08:57:21;28.80;98.60
39957;DHT22;48483;44.640;7.494;2023-06-22T08:59:48;28.90;98.00
39957;DHT22;48483;44.640;7.494;2023-06-22T09:02:14;28.90;98.20
39957;DHT22;48483;44.640;7.494;2023-06-22T09:04:41;29.00;97.10
39957;DHT22;48483;44.640;7.494;2023-06-22T09:07:08;29.00;96.30
39957;DHT22;48483;44.640;7.494;2023-06-22T09:09:35;29.00;95.30
39957;DHT22;48483;44.640;7.494;2023-06-22T09:12:03;29.00;94.90
39957;DHT22;48483;44.640;7.494;2023-06-22T09:14:30;29.00;95.80
39957;DHT22;48483;44.640;7.494;2023-06-22T09:16:57;29.20;95.40
39957;DHT22;48483;44.640;7.494;2023-06-22T09:19:26;29.30;96.00
39957;DHT22;48483;44.640;7.494;2023-06-22T09:21:56;29.30;95.60
39957;DHT22;48483;44.640;7.494;2023-06-22T09:24:23;29.30;96.00
39957;DHT22;48483;44.640;7.494;2023-06-22T09:26:50;29.40;95.30
39957;DHT22;48483;44.640;7.494;2023-06-22T09:29:19;29.50;95.50
39957;DHT22;48483;44.640;7.494;2023-06-22T09:31:45;29.50;95.60
39957;DHT22;48483;44.640;7.494;2023-06-22T09:34:12;29.30;95.30
39957;DHT22;48483;44.640;7.494;2023-06-22T09:36:40;29.30;95.60
39957;DHT22;48483;44.640;7.494;2023-06-22T09:39:07;29.30;95.50
39957;DHT22;48483;44.640;7.494;2023-06-22T09:41:34;29.40;95.60
39957;DHT22;48483;44.640;7.494;2023-06-22T09:44:00;29.40;95.30
39957;DHT22;48483;44.640;7.494;2023-06-22T09:46:29;29.40;95.10
39957;DHT22;48483;44.640;7.494;2023-06-22T09:48:56;29.10;95.10
39957;DHT22;48483;44.640;7.494;2023-06-22T09:51:23;29.10;95.20
39957;DHT22;48483;44.640;7.494;2023-06-22T09:53:50;29.20;95.30
39957;DHT22;48483;44.640;7.494;2023-06-22T09:56:17;29.30;95.30
39957;DHT22;48483;44.640;7.494;2023-06-22T09:58:44;29.30;95.60
39957;DHT22;48483;44.640;7.494;2023-06-22T10:01:11;29.40;95.50
39957;DHT22;48483;44.640;7.494;2023-06-22T10:03:39;29.30;96.00
39957;DHT22;48483;44.640;7.494;2023-06-22T10:06:05;29.50;96.80
39957;DHT22;48483;44.640;7.494;2023-06-22T10:08:32;29.60;96.20
39957;DHT22;48483;44.640;7.494;2023-06-22T10:10:59;29.60;95.70
39957;DHT22;48483;44.640;7.494;2023-06-22T10:13:25;29.60;95.00
39957;DHT22;48483;44.640;7.494;2023-06-22T10:15:52;29.30;94.10
39957;DHT22;48483;44.640;7.494;2023-06-22T10:18:19;29.30;93.40
39957;DHT22;48483;44.640;7.494;2023-06-22T10:20:49;29.40;91.40
39957;DHT22;48483;44.640;7.494;2023-06-22T10:23:19;29.40;85.80
39957;DHT22;48483;44.640;7.494;2023-06-22T10:25:46;29.50;88.90
39957;DHT22;48483;44.640;7.494;2023-06-22T10:28:12;29.50;92.40
39957;DHT22;48483;44.640;7.494;2023-06-22T10:30:39;29.60;92.90
39957;DHT22;48483;44.640;7.494;2023-06-22T10:33:07;29.40;93.00
39957;DHT22;48483;44.640;7.494;2023-06-22T10:35:34;29.40;92.70
39957;DHT22;48483;44.640;7.494;2023-06-22T10:38:02;29.50;93.60
39957;DHT22;48483;44.640;7.494;2023-06-22T10:40:29;29.50;93.70
39957;DHT22;48483;44.640;7.494;2023-06-22T10:42:56;29.50;92.40
39957;DHT22;48483;44.640;7.494;2023-06-22T10:45:23;29.50;92.40
39957;DHT22;48483;44.640;7.494;2023-06-22T10:47:49;29.60;92.80
39957;DHT22;48483;44.640;7.494;2023-06-22T10:50:16;29.60;92.90
39957;DHT22;48483;44.640;7.494;2023-06-22T10:52:43;29.70;92.50
39957;DHT22;48483;44.640;7.494;2023-06-22T10:55:11;29.80;92.30
39957;DHT22;48483;44.640;7.494;2023-06-22T10:57:38;29.90;91.20
39957;DHT22;48483;44.640;7.494;2023-06-22T11:00:08;29.90;91.10
39957;DHT22;48483;44.640;7.494;2023-06-22T11:02:35;29.90;90.50
39957;DHT22;48483;44.640;7.494;2023-06-22T11:05:02;29.90;89.90
39957;DHT22;48483;44.640;7.494;2023-06-22T11:07:29;29.70;89.90
39957;DHT22;48483;44.640;7.494;2023-06-22T11:09:56;29.70;90.30
39957;DHT22;48483;44.640;7.494;2023-06-22T11:12:24;29.70;91.10
39957;DHT22;48483;44.640;7.494;2023-06-22T11:14:51;29.90;91.20
39957;DHT22;48483;44.640;7.494;2023-06-22T11:17:18;30.00;91.20
39957;DHT22;48483;44.640;7.494;2023-06-22T11:19:44;30.10;91.20
39957;DHT22;48483;44.640;7.494;2023-06-22T11:22:11;29.90;88.40
39957;DHT22;48483;44.640;7.494;2023-06-22T11:24:38;30.00;89.50
39957;DHT22;48483;44.640;7.494;2023-06-22T11:27:05;30.10;89.70
39957;DHT22;48483;44.640;7.494;2023-06-22T11:29:33;30.10;88.30
39957;DHT22;48483;44.640;7.494;2023-06-22T11:31:59;30.20;88.60
39957;DHT22;48483;44.640;7.494;2023-06-22T11:34:26;30.20;86.80
39957;DHT22;48483;44.640;7.494;2023-06-22T11:36:54;30.20;86.10
39957;DHT22;48483;44.640;7.494;2023-06-22T11:39:21;30.10;86.90
39957;DHT22;48483;44.640;7.494;2023-06-22T11:41:47;29.90;87.00
39957;DHT22;48483;44.640;7.494;2023-06-22T11:44:14;29.90;86.90
39957;DHT22;48483;44.640;7.494;2023-06-22T11:46:42;29.80;87.20
39957;DHT22;48483;44.640;7.494;2023-06-22T11:49:09;29.90;88.30
39957;DHT22;48483;44.640;7.494;2023-06-22T11:51:36;29.90;87.90
39957;DHT22;48483;44.640;7.494;2023-06-22T11:54:02;29.80;87.40
39957;DHT22;48483;44.640;7.494;2023-06-22T11:56:29;29.90;85.50
39957;DHT22;48483;44.640;7.494;2023-06-22T11:58:56;30.00;85.60
39957;DHT22;48483;44.640;7.494;2023-06-22T12:01:23;29.90;84.90
39957;DHT22;48483;44.640;7.494;2023-06-22T12:03:51;30.00;85.90
39957;DHT22;48483;44.640;7.494;2023-06-22T12:06:17;30.00;80.80
39957;DHT22;48483;44.640;7.494;2023-06-22T12:08:44;29.90;78.90
39957;DHT22;48483;44.640;7.494;2023-06-22T12:11:10;30.00;78.30
39957;DHT22;48483;44.640;7.494;2023-06-22T12:13:37;30.10;80.10
39957;DHT22;48483;44.640;7.494;2023-06-22T12:16:04;30.10;81.30
39957;DHT22;48483;44.640;7.494;2023-06-22T12:18:32;30.10;84.30
39957;DHT22;48483;44.640;7.494;2023-06-22T12:20:59;30.00;86.00
39957;DHT22;48483;44.640;7.494;2023-06-22T12:23:26;30.10;87.80
39957;DHT22;48483;44.640;7.494;2023-06-22T12:25:53;30.20;89.10
39957;DHT22;48483;44.640;7.494;2023-06-22T12:28:19;30.10;88.70
39957;DHT22;48483;44.640;7.494;2023-06-22T12:30:46;30.20;89.60
39957;DHT22;48483;44.640;7.494;2023-06-22T12:33:12;30.20;89.40
39957;DHT22;48483;44.640;7.494;2023-06-22T12:35:39;30.20;88.90
39957;DHT22;48483;44.640;7.494;2023-06-22T12:38:07;30.20;88.80
39957;DHT22;48483;44.640;7.494;2023-06-22T12:40:34;30.20;88.80
39957;DHT22;48483;44.640;7.494;2023-06-22T12:43:01;30.20;89.30
39957;DHT22;48483;44.640;7.494;2023-06-22T12:45:28;30.20;89.80
39957;DHT22;48483;44.640;7.494;2023-06-22T12:47:58;30.30;90.40
39957;DHT22;48483;44.640;7.494;2023-06-22T12:50:24;30.40;90.10
39957;DHT22;48483;44.640;7.494;2023-06-22T12:52:51;30.40;90.10
39957;DHT22;48483;44.640;7.494;2023-06-22T12:55:19;30.50;88.20
39957;DHT22;48483;44.640;7.494;2023-06-22T12:57:46;30.30;87.30
39957;DHT22;48483;44.640;7.494;2023-06-22T13:00:13;30.40;89.00
39957;DHT22;48483;44.640;7.494;2023-06-22T13:02:42;30.40;88.80
39957;DHT22;48483;44.640;7.494;2023-06-22T13:05:09;30.40;89.20
39957;DHT22;48483;44.640;7.494;2023-06-22T13:07:35;30.40;90.10
39957;DHT22;48483;44.640;7.494;2023-06-22T13:10:03;30.30;89.40
39957;DHT22;48483;44.640;7.494;2023-06-22T13:12:32;30.10;89.60
39957;DHT22;48483;44.640;7.494;2023-06-22T13:14:58;30.10;90.00
39957;DHT22;48483;44.640;7.494;2023-06-22T13:17:25;30.10;90.20
39957;DHT22;48483;44.640;7.494;2023-06-22T13:19:51;30.10;88.40
39957;DHT22;48483;44.640;7.494;2023-06-22T13:22:30;30.20;87.50
39957;DHT22;48483;44.640;7.494;2023-06-22T13:24:57;30.10;88.10
39957;DHT22;48483;44.640;7.494;2023-06-22T13:27:24;30.30;87.80
39957;DHT22;48483;44.640;7.494;2023-06-22T13:29:52;30.20;86.60
39957;DHT22;48483;44.640;7.494;2023-06-22T13:32:19;30.20;87.10
39957;DHT22;48483;44.640;7.494;2023-06-22T13:34:46;30.10;86.70
39957;DHT22;48483;44.640;7.494;2023-06-22T13:37:13;30.10;88.80
39957;DHT22;48483;44.640;7.494;2023-06-22T13:39:39;30.00;88.40
39957;DHT22;48483;44.640;7.494;2023-06-22T13:42:07;29.90;87.60
39957;DHT22;48483;44.640;7.494;2023-06-22T13:44:33;29.90;87.40
39957;DHT22;48483;44.640;7.494;2023-06-22T13:47:01;29.90;87.50
39957;DHT22;48483;44.640;7.494;2023-06-22T13:49:28;29.90;87.90
39957;DHT22;48483;44.640;7.494;2023-06-22T13:51:55;29.90;87.60
39957;DHT22;48483;44.640;7.494;2023-06-22T13:54:22;29.90;89.80
39957;DHT22;48483;44.640;7.494;2023-06-22T13:56:48;29.80;87.20
39957;DHT22;48483;44.640;7.494;2023-06-22T13:59:15;29.80;87.90
39957;DHT22;48483;44.640;7.494;2023-06-22T14:01:42;29.60;85.30
39957;DHT22;48483;44.640;7.494;2023-06-22T14:04:11;29.60;86.00
39957;DHT22;48483;44.640;7.494;2023-06-22T14:06:38;29.60;86.70
39957;DHT22;48483;44.640;7.494;2023-06-22T14:09:05;29.60;86.90
39957;DHT22;48483;44.640;7.494;2023-06-22T14:11:31;29.50;85.30
39957;DHT22;48483;44.640;7.494;2023-06-22T14:13:58;29.20;85.60
39957;DHT22;48483;44.640;7.494;2023-06-22T14:16:25;29.20;87.90
39957;DHT22;48483;44.640;7.494;2023-06-22T14:18:52;29.20;90.20
39957;DHT22;48483;44.640;7.494;2023-06-22T14:21:20;29.10;91.20
39957;DHT22;48483;44.640;7.494;2023-06-22T14:23:46;29.10;92.30
39957;DHT22;48483;44.640;7.494;2023-06-22T14:26:16;29.00;92.60
39957;DHT22;48483;44.640;7.494;2023-06-22T14:28:45;29.10;92.30
39957;DHT22;48483;44.640;7.494;2023-06-22T14:31:17;29.10;92.60
39957;DHT22;48483;44.640;7.494;2023-06-22T14:33:45;29.00;93.70
39957;DHT22;48483;44.640;7.494;2023-06-22T14:36:12;28.90;94.50
39957;DHT22;48483;44.640;7.494;2023-06-22T14:38:40;28.80;94.20
39957;DHT22;48483;44.640;7.494;2023-06-22T14:41:07;28.80;93.30
39957;DHT22;48483;44.640;7.494;2023-06-22T14:43:34;28.90;92.80
39957;DHT22;48483;44.640;7.494;2023-06-22T14:46:00;28.80;92.00
39957;DHT22;48483;44.640;7.494;2023-06-22T14:48:27;29.00;91.10
39957;DHT22;48483;44.640;7.494;2023-06-22T14:50:54;29.00;90.50
39957;DHT22;48483;44.640;7.494;2023-06-22T14:53:20;29.10;89.70
39957;DHT22;48483;44.640;7.494;2023-06-22T14:55:49;29.00;89.90
39957;DHT22;48483;44.640;7.494;2023-06-22T14:58:15;29.10;90.20
39957;DHT22;48483;44.640;7.494;2023-06-22T15:00:42;29.10;90.10
39957;DHT22;48483;44.640;7.494;2023-06-22T15:03:08;29.10;90.60
39957;DHT22;48483;44.640;7.494;2023-06-22T15:05:37;29.10;90.90
39957;DHT22;48483;44.640;7.494;2023-06-22T15:08:04;29.10;91.30
39957;DHT22;48483;44.640;7.494;2023-06-22T15:10:31;28.80;91.20
39957;DHT22;48483;44.640;7.494;2023-06-22T15:12:59;28.90;90.60
39957;DHT22;48483;44.640;7.494;2023-06-22T15:15:26;29.10;91.10
39957;DHT22;48483;44.640;7.494;2023-06-22T15:17:52;29.10;89.60
39957;DHT22;48483;44.640;7.494;2023-06-22T15:20:19;29.10;89.50
39957;DHT22;48483;44.640;7.494;2023-06-22T15:22:46;29.10;88.80
39957;DHT22;48483;44.640;7.494;2023-06-22T15:25:12;29.10;89.60
39957;DHT22;48483;44.640;7.494;2023-06-22T15:27:39;29.20;89.40
39957;DHT22;48483;44.640;7.494;2023-06-22T15:30:08;29.10;89.70
39957;DHT22;48483;44.640;7.494;2023-06-22T15:32:35;29.10;89.60